createdAt,value
2017-04-29T00:00:12.954Z,1015.59
2017-04-29T00:01:26.592Z,1015.63
2017-04-29T00:02:40.025Z,1015.61
2017-04-29T00:03:54.117Z,1015.59
2017-04-29T00:05:07.668Z,1015.64
2017-04-29T00:06:21.237Z,1015.64
2017-04-29T00:07:34.626Z,1015.66
2017-04-29T00:08:48.798Z,1015.62
2017-04-29T00:10:02.725Z,1015.59
2017-04-29T00:11:16.464Z,1015.66
2017-04-29T00:12:30.287Z,1015.63
2017-04-29T00:13:43.933Z,1015.63
2017-04-29T00:14:56.883Z,1015.61
2017-04-29T00:16:10.194Z,1015.56
2017-04-29T00:17:23.366Z,1015.61
2017-04-29T00:18:36.634Z,1015.52
2017-04-29T00:19:49.185Z,1015.57
2017-04-29T00:21:02.529Z,1015.59
2017-04-29T00:22:15.844Z,1015.59
2017-04-29T00:23:29.113Z,1015.58
2017-04-29T00:24:42.619Z,1015.57
2017-04-29T00:25:56.723Z,1015.6
2017-04-29T00:27:10.104Z,1015.64
2017-04-29T00:28:24.054Z,1015.58
2017-04-29T00:29:37.930Z,1015.61
2017-04-29T00:30:50.719Z,1015.65
2017-04-29T00:32:04.622Z,1015.63
2017-04-29T00:33:18.850Z,1015.67
2017-04-29T00:34:32.319Z,1015.63
2017-04-29T00:35:46.540Z,1015.64
2017-04-29T00:37:00.191Z,1015.61
2017-04-29T00:38:13.856Z,1015.67
2017-04-29T00:39:26.662Z,1015.64
2017-04-29T00:40:40.204Z,1015.67
2017-04-29T00:41:54.097Z,1015.64
2017-04-29T00:43:07.579Z,1015.62
2017-04-29T00:44:20.909Z,1015.63
2017-04-29T00:45:34.273Z,1015.58
2017-04-29T00:46:48.062Z,1015.62
2017-04-29T00:48:02.930Z,1015.6
2017-04-29T00:49:16.809Z,1015.62
2017-04-29T00:50:30.697Z,1015.62
2017-04-29T00:51:44.724Z,1015.59
2017-04-29T00:52:58.935Z,1015.56
2017-04-29T00:54:12.709Z,1015.58
2017-04-29T00:55:25.938Z,1015.6
2017-04-29T00:56:39.359Z,1015.66
2017-04-29T00:57:52.611Z,1015.64
2017-04-29T00:59:05.745Z,1015.67
2017-04-29T01:00:18.382Z,1015.68
2017-04-29T01:01:31.835Z,1015.72
2017-04-29T01:02:45.107Z,1015.73
2017-04-29T01:03:58.776Z,1015.73
2017-04-29T01:05:11.985Z,1015.78
2017-04-29T01:06:23.388Z,1015.79
2017-04-29T01:07:34.605Z,1015.74
2017-04-29T01:08:45.735Z,1015.78
2017-04-29T01:09:56.744Z,1015.83
2017-04-29T01:11:09.983Z,1015.81
2017-04-29T01:12:21.693Z,1015.84
2017-04-29T01:13:31.678Z,1015.8
2017-04-29T01:14:43.376Z,1015.85
2017-04-29T01:15:55.787Z,1015.81
2017-04-29T01:17:07.239Z,1015.83
2017-04-29T01:18:18.128Z,1015.83
2017-04-29T01:19:29.804Z,1015.74
2017-04-29T01:20:41.377Z,1015.83
2017-04-29T01:21:52.849Z,1015.78
2017-04-29T01:23:05.952Z,1015.81
2017-04-29T01:24:16.657Z,1015.82
2017-04-29T01:25:26.801Z,1015.81
2017-04-29T01:26:38.421Z,1015.83
2017-04-29T01:27:49.270Z,1015.84
2017-04-29T01:29:01.720Z,1015.87
2017-04-29T01:30:12.173Z,1015.87
2017-04-29T01:31:22.529Z,1015.89
2017-04-29T01:32:32.538Z,1015.95
2017-04-29T01:33:43.046Z,1015.96
2017-04-29T01:34:53.497Z,1015.91
2017-04-29T01:36:04.218Z,1015.91
2017-04-29T01:37:14.735Z,1015.95
2017-04-29T01:38:24.403Z,1015.93
2017-04-29T01:39:34.718Z,1016.01
2017-04-29T01:40:45.820Z,1015.99
2017-04-29T01:41:55.579Z,1016.02
2017-04-29T01:43:05.816Z,1016.02
2017-04-29T01:44:17.113Z,1016.02
2017-04-29T01:45:27.351Z,1016.03
2017-04-29T01:46:38.024Z,1015.99
2017-04-29T01:47:47.955Z,1016.07
2017-04-29T01:48:58.463Z,1016.06
2017-04-29T01:50:09.337Z,1016.07
2017-04-29T01:51:19.746Z,1016.03
2017-04-29T01:52:30.201Z,1016.05
2017-04-29T01:53:41.085Z,1016.08
2017-04-29T01:54:52.288Z,1016.11
2017-04-29T01:56:02.874Z,1016.04
2017-04-29T01:57:13.821Z,1016.08
2017-04-29T01:58:23.879Z,1016.11
2017-04-29T01:59:33.827Z,1016.14
2017-04-29T02:00:44.670Z,1016.12
2017-04-29T02:01:55.486Z,1016.13
2017-04-29T02:03:05.392Z,1016.12
2017-04-29T02:04:15.844Z,1016.15
2017-04-29T02:05:26.280Z,1016.13
2017-04-29T02:06:36.155Z,1016.13
2017-04-29T02:07:46.080Z,1016.16
2017-04-29T02:08:56.180Z,1016.2
2017-04-29T02:10:05.922Z,1016.24
2017-04-29T02:11:16.109Z,1016.17
2017-04-29T02:12:26.178Z,1016.19
2017-04-29T02:13:35.885Z,1016.2
2017-04-29T02:14:45.506Z,1016.25
2017-04-29T02:15:56.754Z,1016.28
2017-04-29T02:17:07.155Z,1016.27
2017-04-29T02:18:17.000Z,1016.26
2017-04-29T02:19:27.229Z,1016.24
2017-04-29T02:20:37.268Z,1016.28
2017-04-29T02:21:48.107Z,1016.26
2017-04-29T02:22:58.651Z,1016.27
2017-04-29T02:24:08.658Z,1016.23
2017-04-29T02:25:18.777Z,1016.26
2017-04-29T02:26:29.001Z,1016.22
2017-04-29T02:27:39.143Z,1016.28
2017-04-29T02:28:50.153Z,1016.28
2017-04-29T02:30:01.027Z,1016.33
2017-04-29T02:31:11.337Z,1016.3
2017-04-29T02:32:21.965Z,1016.29
2017-04-29T02:33:32.210Z,1016.28
2017-04-29T02:34:41.892Z,1016.33
2017-04-29T02:35:52.303Z,1016.36
2017-04-29T02:37:03.070Z,1016.31
2017-04-29T02:38:11.955Z,1016.31
2017-04-29T02:39:22.115Z,1016.33
2017-04-29T02:40:31.355Z,1016.29
2017-04-29T02:41:40.941Z,1016.29
2017-04-29T02:42:49.824Z,1016.31
2017-04-29T02:43:59.366Z,1016.33
2017-04-29T02:45:08.578Z,1016.31
2017-04-29T02:46:17.462Z,1016.31
2017-04-29T02:47:26.403Z,1016.31
2017-04-29T02:48:35.616Z,1016.34
2017-04-29T02:49:44.831Z,1016.39
2017-04-29T02:50:54.041Z,1016.4
2017-04-29T02:52:02.932Z,1016.37
2017-04-29T02:53:12.476Z,1016.39
2017-04-29T02:54:21.688Z,1016.37
2017-04-29T02:55:30.906Z,1016.38
2017-04-29T02:56:40.450Z,1016.36
2017-04-29T02:57:49.986Z,1016.37
2017-04-29T02:58:59.678Z,1016.39
2017-04-29T03:00:08.894Z,1016.43
2017-04-29T03:01:18.112Z,1016.44
2017-04-29T03:02:27.006Z,1016.39
2017-04-29T03:03:36.546Z,1016.45
2017-04-29T03:04:46.559Z,1016.45
2017-04-29T03:05:55.774Z,1016.43
2017-04-29T03:07:04.986Z,1016.45
2017-04-29T03:08:13.876Z,1016.42
2017-04-29T03:09:24.039Z,1016.39
2017-04-29T03:10:34.430Z,1016.36
2017-04-29T03:11:43.318Z,1016.39
2017-04-29T03:12:52.527Z,1016.43
2017-04-29T03:14:02.065Z,1016.42
2017-04-29T03:15:11.279Z,1016.4
2017-04-29T03:16:20.413Z,1016.39
2017-04-29T03:17:29.311Z,1016.41
2017-04-29T03:18:38.523Z,1016.42
2017-04-29T03:19:47.733Z,1016.4
2017-04-29T03:20:56.632Z,1016.42
2017-04-29T03:22:05.888Z,1016.36
2017-04-29T03:23:15.095Z,1016.38
2017-04-29T03:24:23.990Z,1016.41
2017-04-29T03:25:33.203Z,1016.42
2017-04-29T03:26:42.792Z,1016.41
2017-04-29T03:27:52.332Z,1016.42
2017-04-29T03:29:01.220Z,1016.41
2017-04-29T03:30:10.434Z,1016.43
2017-04-29T03:31:19.316Z,1016.42
2017-04-29T03:32:28.203Z,1016.42
2017-04-29T03:33:37.798Z,1016.45
2017-04-29T03:34:47.356Z,1016.45
2017-04-29T03:35:56.893Z,1016.5
2017-04-29T03:37:06.366Z,1016.49
2017-04-29T03:38:16.190Z,1016.49
2017-04-29T03:39:25.777Z,1016.48
2017-04-29T03:40:34.988Z,1016.46
2017-04-29T03:41:44.521Z,1016.46
2017-04-29T03:42:53.400Z,1016.44
2017-04-29T03:44:02.937Z,1016.43
2017-04-29T03:45:11.975Z,1016.47
2017-04-29T03:46:20.865Z,1016.45
2017-04-29T03:47:30.073Z,1016.45
2017-04-29T03:48:39.615Z,1016.42
2017-04-29T03:49:49.811Z,1016.4
2017-04-29T03:50:59.498Z,1016.34
2017-04-29T03:52:08.711Z,1016.38
2017-04-29T03:53:17.601Z,1016.35
2017-04-29T03:54:27.151Z,1016.36
2017-04-29T03:55:36.367Z,1016.42
2017-04-29T03:56:45.878Z,1016.45
2017-04-29T03:57:55.082Z,1016.46
2017-04-29T03:59:04.954Z,1016.43
2017-04-29T04:00:14.493Z,1016.45
2017-04-29T04:01:23.701Z,1016.42
2017-04-29T04:02:33.165Z,1016.47
2017-04-29T04:03:42.062Z,1016.45
2017-04-29T04:04:51.606Z,1016.47
2017-04-29T04:06:00.492Z,1016.5
2017-04-29T04:07:09.383Z,1016.49
2017-04-29T04:08:18.892Z,1016.5
2017-04-29T04:09:28.472Z,1016.52
2017-04-29T04:10:37.684Z,1016.55
2017-04-29T04:11:46.896Z,1016.53
2017-04-29T04:12:56.107Z,1016.57
2017-04-29T04:14:05.796Z,1016.5
2017-04-29T04:15:15.010Z,1016.56
2017-04-29T04:16:24.220Z,1016.57
2017-04-29T04:17:33.758Z,1016.54
2017-04-29T04:18:43.300Z,1016.61
2017-04-29T04:19:52.236Z,1016.61
2017-04-29T04:21:01.776Z,1016.66
2017-04-29T04:22:11.336Z,1016.69
2017-04-29T04:23:20.546Z,1016.64
2017-04-29T04:24:30.262Z,1016.59
2017-04-29T04:25:39.300Z,1016.67
2017-04-29T04:26:48.190Z,1016.67
2017-04-29T04:27:57.399Z,1016.65
2017-04-29T04:29:06.288Z,1016.7
2017-04-29T04:30:15.171Z,1016.7
2017-04-29T04:31:24.378Z,1016.74
2017-04-29T04:32:33.260Z,1016.71
2017-04-29T04:33:42.794Z,1016.72
2017-04-29T04:34:52.328Z,1016.7
2017-04-29T04:36:01.548Z,1016.66
2017-04-29T04:37:10.760Z,1016.67
2017-04-29T04:38:19.965Z,1016.69
2017-04-29T04:39:29.177Z,1016.62
2017-04-29T04:40:38.386Z,1016.67
2017-04-29T04:41:47.270Z,1016.64
2017-04-29T04:42:56.154Z,1016.67
2017-04-29T04:44:05.695Z,1016.69
2017-04-29T04:45:15.236Z,1016.72
2017-04-29T04:46:24.772Z,1016.7
2017-04-29T04:47:33.979Z,1016.7
2017-04-29T04:48:43.719Z,1016.7
2017-04-29T04:49:52.930Z,1016.69
2017-04-29T04:51:02.476Z,1016.68
2017-04-29T04:52:12.338Z,1016.71
2017-04-29T04:53:21.223Z,1016.68
2017-04-29T04:54:31.325Z,1016.68
2017-04-29T04:55:40.822Z,1016.69
2017-04-29T04:56:49.706Z,1016.72
2017-04-29T04:57:58.923Z,1016.71
2017-04-29T04:59:08.134Z,1016.71
2017-04-29T05:00:17.878Z,1016.74
2017-04-29T05:01:26.767Z,1016.76
2017-04-29T05:02:36.304Z,1016.73
2017-04-29T05:03:45.538Z,1016.73
2017-04-29T05:04:55.074Z,1016.72
2017-04-29T05:06:05.313Z,1016.67
2017-04-29T05:07:14.525Z,1016.68
2017-04-29T05:08:24.386Z,1016.69
2017-04-29T05:09:33.963Z,1016.63
2017-04-29T05:10:42.852Z,1016.67
2017-04-29T05:11:51.888Z,1016.65
2017-04-29T05:13:00.778Z,1016.7
2017-04-29T05:14:10.642Z,1016.69
2017-04-29T05:15:19.886Z,1016.7
2017-04-29T05:16:29.102Z,1016.7
2017-04-29T05:17:38.517Z,1016.74
2017-04-29T05:18:47.737Z,1016.71
2017-04-29T05:19:57.277Z,1016.64
2017-04-29T05:21:06.495Z,1016.65
2017-04-29T05:22:15.705Z,1016.67
2017-04-29T05:23:24.638Z,1016.67
2017-04-29T05:24:33.849Z,1016.67
2017-04-29T05:25:43.061Z,1016.71
2017-04-29T05:26:52.267Z,1016.67
2017-04-29T05:28:01.475Z,1016.68
2017-04-29T05:29:11.491Z,1016.67
2017-04-29T05:30:21.683Z,1016.71
2017-04-29T05:31:30.887Z,1016.71
2017-04-29T05:32:40.104Z,1016.71
2017-04-29T05:33:49.643Z,1016.68
2017-04-29T05:34:59.615Z,1016.75
2017-04-29T05:36:08.499Z,1016.75
2017-04-29T05:37:17.707Z,1016.76
2017-04-29T05:38:26.916Z,1016.76
2017-04-29T05:39:36.128Z,1016.75
2017-04-29T05:40:45.741Z,1016.79
2017-04-29T05:41:54.625Z,1016.8
2017-04-29T05:43:03.840Z,1016.81
2017-04-29T05:44:13.705Z,1016.78
2017-04-29T05:45:22.914Z,1016.78
2017-04-29T05:46:32.709Z,1016.81
2017-04-29T05:47:41.919Z,1016.81
2017-04-29T05:48:51.465Z,1016.83
2017-04-29T05:50:00.999Z,1016.86
2017-04-29T05:51:09.884Z,1016.88
2017-04-29T05:52:19.844Z,1016.86
2017-04-29T05:53:28.767Z,1016.88
2017-04-29T05:54:37.652Z,1016.9
2017-04-29T05:55:47.513Z,1016.88
2017-04-29T05:56:56.408Z,1016.88
2017-04-29T05:58:05.620Z,1016.92
2017-04-29T05:59:15.809Z,1016.92
2017-04-29T06:00:24.698Z,1016.94
2017-04-29T06:01:33.590Z,1016.93
2017-04-29T06:02:42.806Z,1016.95
2017-04-29T06:03:52.348Z,1016.98
2017-04-29T06:05:01.561Z,1017.03
2017-04-29T06:06:10.770Z,1016.97
2017-04-29T06:07:19.981Z,1017.03
2017-04-29T06:08:28.874Z,1017.06
2017-04-29T06:09:38.421Z,1017.09
2017-04-29T06:10:47.952Z,1017.13
2017-04-29T06:11:56.839Z,1017.15
2017-04-29T06:13:06.047Z,1017.18
2017-04-29T06:14:15.257Z,1017.14
2017-04-29T06:15:24.803Z,1017.15
2017-04-29T06:16:34.014Z,1017.17
2017-04-29T06:17:43.423Z,1017.19
2017-04-29T06:18:53.286Z,1017.19
2017-04-29T06:20:02.500Z,1017.24
2017-04-29T06:21:11.714Z,1017.19
2017-04-29T06:22:20.928Z,1017.24
2017-04-29T06:23:29.868Z,1017.28
2017-04-29T06:24:39.409Z,1017.27
2017-04-29T06:25:48.301Z,1017.3
2017-04-29T06:26:57.514Z,1017.29
2017-04-29T06:28:06.403Z,1017.24
2017-04-29T06:29:15.631Z,1017.26
2017-04-29T06:30:25.165Z,1017.25
2017-04-29T06:31:34.377Z,1017.26
2017-04-29T06:32:43.266Z,1017.27
2017-04-29T06:33:52.479Z,1017.24
2017-04-29T06:35:01.846Z,1017.29
2017-04-29T06:36:10.746Z,1017.3
2017-04-29T06:37:20.049Z,1017.26
2017-04-29T06:38:28.946Z,1017.28
2017-04-29T06:39:38.807Z,1017.27
2017-04-29T06:40:47.739Z,1017.27
2017-04-29T06:41:56.650Z,1017.28
2017-04-29T06:43:05.897Z,1017.32
2017-04-29T06:44:15.583Z,1017.27
2017-04-29T06:45:25.606Z,1017.33
2017-04-29T06:46:34.824Z,1017.36
2017-04-29T06:47:44.035Z,1017.35
2017-04-29T06:48:53.576Z,1017.4
2017-04-29T06:50:03.764Z,1017.39
2017-04-29T06:51:12.954Z,1017.4
2017-04-29T06:52:21.839Z,1017.42
2017-04-29T06:53:30.728Z,1017.41
2017-04-29T06:54:39.947Z,1017.48
2017-04-29T06:55:49.487Z,1017.42
2017-04-29T06:56:58.952Z,1017.48
2017-04-29T06:58:08.488Z,1017.44
2017-04-29T06:59:17.374Z,1017.52
2017-04-29T07:00:26.320Z,1017.56
2017-04-29T07:01:35.207Z,1017.5
2017-04-29T07:02:44.145Z,1017.52
2017-04-29T07:03:53.367Z,1017.52
2017-04-29T07:05:02.911Z,1017.52
2017-04-29T07:06:12.137Z,1017.53
2017-04-29T07:07:21.032Z,1017.55
2017-04-29T07:08:29.972Z,1017.56
2017-04-29T07:09:39.184Z,1017.52
2017-04-29T07:10:48.074Z,1017.56
2017-04-29T07:11:57.296Z,1017.54
2017-04-29T07:13:07.485Z,1017.6
2017-04-29T07:14:16.892Z,1017.55
2017-04-29T07:15:26.443Z,1017.61
2017-04-29T07:16:35.651Z,1017.62
2017-04-29T07:17:44.869Z,1017.56
2017-04-29T07:18:54.743Z,1017.58
2017-04-29T07:20:04.663Z,1017.57
2017-04-29T07:21:13.550Z,1017.63
2017-04-29T07:22:23.084Z,1017.67
2017-04-29T07:23:31.969Z,1017.67
2017-04-29T07:24:41.514Z,1017.63
2017-04-29T07:25:50.595Z,1017.62
2017-04-29T07:26:59.810Z,1017.68
2017-04-29T07:28:09.356Z,1017.61
2017-04-29T07:29:18.253Z,1017.7
2017-04-29T07:30:27.151Z,1017.62
2017-04-29T07:31:36.527Z,1017.64
2017-04-29T07:32:45.741Z,1017.68
2017-04-29T07:33:54.967Z,1017.65
2017-04-29T07:35:04.508Z,1017.64
2017-04-29T07:36:13.731Z,1017.66
2017-04-29T07:37:22.618Z,1017.66
2017-04-29T07:38:31.849Z,1017.65
2017-04-29T07:39:41.393Z,1017.66
2017-04-29T07:40:50.282Z,1017.66
2017-04-29T07:41:59.500Z,1017.68
2017-04-29T07:43:08.391Z,1017.7
2017-04-29T07:44:17.303Z,1017.71
2017-04-29T07:45:26.525Z,1017.73
2017-04-29T07:46:35.739Z,1017.76
2017-04-29T07:47:44.950Z,1017.68
2017-04-29T07:48:54.820Z,1017.74
2017-04-29T07:50:04.042Z,1017.78
2017-04-29T07:51:13.258Z,1017.76
2017-04-29T07:52:22.152Z,1017.81
2017-04-29T07:53:31.374Z,1017.81
2017-04-29T07:54:40.602Z,1017.86
2017-04-29T07:55:49.491Z,1017.86
2017-04-29T07:56:58.710Z,1017.82
2017-04-29T07:58:07.601Z,1017.85
2017-04-29T07:59:17.140Z,1017.87
2017-04-29T08:00:26.683Z,1017.99
2017-04-29T08:01:35.897Z,1017.91
2017-04-29T08:02:45.264Z,1017.95
2017-04-29T08:03:55.459Z,1017.96
2017-04-29T08:05:04.999Z,1017.97
2017-04-29T08:06:14.209Z,1017.94
2017-04-29T08:07:23.106Z,1018
2017-04-29T08:08:32.320Z,1017.97
2017-04-29T08:09:41.540Z,1018.03
2017-04-29T08:10:50.430Z,1017.98
2017-04-29T08:11:59.640Z,1017.95
2017-04-29T08:13:08.850Z,1017.89
2017-04-29T08:14:18.217Z,1017.89
2017-04-29T08:15:27.431Z,1017.86
2017-04-29T08:16:36.331Z,1017.82
2017-04-29T08:17:45.542Z,1017.79
2017-04-29T08:18:54.760Z,1017.74
2017-04-29T08:20:04.450Z,1017.72
2017-04-29T08:21:13.348Z,1017.75
2017-04-29T08:22:22.562Z,1017.8
2017-04-29T08:23:31.783Z,1017.79
2017-04-29T08:24:41.327Z,1017.79
2017-04-29T08:25:51.018Z,1017.83
2017-04-29T08:27:00.240Z,1017.86
2017-04-29T08:28:09.795Z,1017.87
2017-04-29T08:29:19.339Z,1017.87
2017-04-29T08:30:28.228Z,1017.97
2017-04-29T08:31:37.832Z,1017.9
2017-04-29T08:32:47.050Z,1017.95
2017-04-29T08:33:56.601Z,1017.87
2017-04-29T08:35:05.821Z,1017.91
2017-04-29T08:36:14.711Z,1017.9
2017-04-29T08:37:24.078Z,1017.9
2017-04-29T08:38:33.299Z,1017.9
2017-04-29T08:39:42.189Z,1017.91
2017-04-29T08:40:51.731Z,1017.93
2017-04-29T08:42:00.952Z,1017.95
2017-04-29T08:43:10.645Z,1017.93
2017-04-29T08:44:20.512Z,1017.92
2017-04-29T08:45:29.724Z,1017.89
2017-04-29T08:46:38.616Z,1017.92
2017-04-29T08:47:47.534Z,1017.93
2017-04-29T08:48:57.080Z,1017.92
2017-04-29T08:50:06.625Z,1017.96
2017-04-29T08:51:15.841Z,1018.01
2017-04-29T08:52:24.733Z,1017.97
2017-04-29T08:53:33.627Z,1018
2017-04-29T08:54:43.145Z,1018.02
2017-04-29T08:55:52.045Z,1017.97
2017-04-29T08:57:00.936Z,1018.03
2017-04-29T08:58:10.151Z,1018.08
2017-04-29T08:59:19.387Z,1018.01
2017-04-29T09:00:28.652Z,1018.02
2017-04-29T09:01:37.875Z,1018.01
2017-04-29T09:02:47.426Z,1017.99
2017-04-29T09:03:57.298Z,1018.04
2017-04-29T09:05:06.519Z,1018.02
2017-04-29T09:06:15.833Z,1018.06
2017-04-29T09:07:25.052Z,1018.07
2017-04-29T09:08:34.274Z,1018.05
2017-04-29T09:09:43.489Z,1018.01
2017-04-29T09:10:52.706Z,1018.09
2017-04-29T09:12:02.024Z,1018.13
2017-04-29T09:13:10.914Z,1018.07
2017-04-29T09:14:20.457Z,1018.03
2017-04-29T09:15:29.676Z,1018.1
2017-04-29T09:16:38.563Z,1018.11
2017-04-29T09:17:47.751Z,1018.08
2017-04-29T09:18:57.302Z,1018.06
2017-04-29T09:20:06.523Z,1018.03
2017-04-29T09:21:15.415Z,1018.01
2017-04-29T09:22:24.302Z,1017.98
2017-04-29T09:23:33.247Z,1018.03
2017-04-29T09:24:42.795Z,1017.98
2017-04-29T09:25:52.035Z,1017.95
2017-04-29T09:27:01.579Z,1017.96
2017-04-29T09:28:10.799Z,1017.93
2017-04-29T09:29:20.491Z,1017.91
2017-04-29T09:30:29.718Z,1017.91
2017-04-29T09:31:38.936Z,1017.95
2017-04-29T09:32:47.834Z,1017.85
2017-04-29T09:33:57.377Z,1017.89
2017-04-29T09:35:07.404Z,1017.88
2017-04-29T09:36:16.624Z,1017.94
2017-04-29T09:37:26.170Z,1017.91
2017-04-29T09:38:35.062Z,1017.88
2017-04-29T09:39:44.605Z,1017.92
2017-04-29T09:40:54.076Z,1017.94
2017-04-29T09:42:03.293Z,1017.86
2017-04-29T09:43:12.186Z,1017.81
2017-04-29T09:44:21.739Z,1017.84
2017-04-29T09:45:30.953Z,1017.81
2017-04-29T09:46:40.747Z,1017.85
2017-04-29T09:47:49.640Z,1017.82
2017-04-29T09:48:59.834Z,1017.87
2017-04-29T09:50:09.057Z,1017.86
2017-04-29T09:51:18.005Z,1017.92
2017-04-29T09:52:27.271Z,1017.89
2017-04-29T09:53:36.814Z,1017.92
2017-04-29T09:54:45.711Z,1017.98
2017-04-29T09:55:54.932Z,1017.85
2017-04-29T09:57:04.151Z,1017.86
2017-04-29T09:58:13.086Z,1017.93
2017-04-29T09:59:21.978Z,1017.9
2017-04-29T10:00:31.522Z,1017.91
2017-04-29T10:01:40.416Z,1017.94
2017-04-29T10:02:49.310Z,1017.87
2017-04-29T10:03:59.496Z,1017.85
2017-04-29T10:05:08.721Z,1017.83
2017-04-29T10:06:17.611Z,1017.82
2017-04-29T10:07:26.505Z,1017.94
2017-04-29T10:08:35.400Z,1017.85
2017-04-29T10:09:45.093Z,1017.89
2017-04-29T10:10:54.317Z,1017.9
2017-04-29T10:12:03.233Z,1017.9
2017-04-29T10:13:12.776Z,1017.91
2017-04-29T10:14:21.998Z,1017.86
2017-04-29T10:15:31.544Z,1017.9
2017-04-29T10:16:40.758Z,1017.9
2017-04-29T10:17:49.684Z,1017.9
2017-04-29T10:18:58.908Z,1017.85
2017-04-29T10:20:07.807Z,1017.89
2017-04-29T10:21:16.748Z,1017.87
2017-04-29T10:22:25.966Z,1017.82
2017-04-29T10:23:35.184Z,1017.87
2017-04-29T10:24:44.731Z,1017.87
2017-04-29T10:25:53.622Z,1017.88
2017-04-29T10:27:02.666Z,1017.83
2017-04-29T10:28:11.890Z,1017.83
2017-04-29T10:29:21.115Z,1017.77
2017-04-29T10:30:30.332Z,1017.82
2017-04-29T10:31:39.222Z,1017.77
2017-04-29T10:32:48.272Z,1017.86
2017-04-29T10:33:58.145Z,1017.8
2017-04-29T10:35:07.038Z,1017.8
2017-04-29T10:36:16.256Z,1017.81
2017-04-29T10:37:25.151Z,1017.77
2017-04-29T10:38:34.091Z,1017.81
2017-04-29T10:39:43.636Z,1017.84
2017-04-29T10:40:52.526Z,1017.78
2017-04-29T10:42:02.068Z,1017.82
2017-04-29T10:43:11.289Z,1017.86
2017-04-29T10:44:20.883Z,1017.77
2017-04-29T10:45:30.427Z,1017.8
2017-04-29T10:46:39.650Z,1017.82
2017-04-29T10:47:49.190Z,1017.82
2017-04-29T10:48:58.455Z,1017.86
2017-04-29T10:50:07.450Z,1017.87
2017-04-29T10:51:16.663Z,1017.83
2017-04-29T10:52:25.554Z,1017.8
2017-04-29T10:53:35.094Z,1017.85
2017-04-29T10:54:44.312Z,1017.84
2017-04-29T10:55:53.577Z,1017.84
2017-04-29T10:57:02.469Z,1017.85
2017-04-29T10:58:11.361Z,1017.84
2017-04-29T10:59:21.228Z,1017.81
2017-04-29T11:00:30.780Z,1017.81
2017-04-29T11:01:40.073Z,1017.82
2017-04-29T11:02:49.296Z,1017.84
2017-04-29T11:03:58.847Z,1017.85
2017-04-29T11:05:07.740Z,1017.84
2017-04-29T11:06:16.635Z,1017.87
2017-04-29T11:07:26.310Z,1017.89
2017-04-29T11:08:35.526Z,1017.9
2017-04-29T11:09:44.745Z,1017.92
2017-04-29T11:10:54.285Z,1017.9
2017-04-29T11:12:03.211Z,1017.9
2017-04-29T11:13:12.588Z,1017.96
2017-04-29T11:14:22.140Z,1017.97
2017-04-29T11:15:31.362Z,1017.96
2017-04-29T11:16:40.252Z,1018
2017-04-29T11:17:49.796Z,1017.98
2017-04-29T11:18:59.679Z,1017.95
2017-04-29T11:20:08.896Z,1017.98
2017-04-29T11:21:18.113Z,1018.02
2017-04-29T11:22:27.327Z,1017.96
2017-04-29T11:23:36.544Z,1017.96
2017-04-29T11:24:46.891Z,1017.96
2017-04-29T11:25:56.766Z,1017.96
2017-04-29T11:27:06.302Z,1017.93
2017-04-29T11:28:15.516Z,1017.96
2017-04-29T11:29:25.394Z,1017.97
2017-04-29T11:30:34.437Z,1017.96
2017-04-29T11:31:43.983Z,1017.99
2017-04-29T11:32:53.204Z,1018
2017-04-29T11:34:02.106Z,1018.01
2017-04-29T11:35:11.646Z,1018.05
2017-04-29T11:36:21.165Z,1018.08
2017-04-29T11:37:30.712Z,1018.06
2017-04-29T11:38:39.928Z,1018.09
2017-04-29T11:39:49.149Z,1018.09
2017-04-29T11:40:58.371Z,1018.12
2017-04-29T11:42:07.311Z,1018.09
2017-04-29T11:43:16.529Z,1018.18
2017-04-29T11:44:25.765Z,1018.07
2017-04-29T11:45:35.309Z,1018.11
2017-04-29T11:46:44.530Z,1018.06
2017-04-29T11:47:53.576Z,1018.05
2017-04-29T11:49:02.797Z,1018.04
2017-04-29T11:50:12.015Z,1018.06
2017-04-29T11:51:21.237Z,1018.08
2017-04-29T11:52:30.128Z,1018.07
2017-04-29T11:53:39.496Z,1018.13
2017-04-29T11:54:49.698Z,1018.1
2017-04-29T11:55:58.602Z,1018.1
2017-04-29T11:57:07.492Z,1018.12
2017-04-29T11:58:16.717Z,1018.21
2017-04-29T11:59:26.899Z,1018.21
2017-04-29T12:00:36.451Z,1018.22
2017-04-29T12:01:45.668Z,1018.22
2017-04-29T12:02:54.888Z,1018.27
2017-04-29T12:04:04.431Z,1018.28
2017-04-29T12:05:14.027Z,1018.27
2017-04-29T12:06:23.241Z,1018.32
2017-04-29T12:07:32.461Z,1018.31
2017-04-29T12:08:41.358Z,1018.32
2017-04-29T12:09:50.906Z,1018.29
2017-04-29T12:11:00.704Z,1018.34
2017-04-29T12:12:09.592Z,1018.31
2017-04-29T12:13:18.484Z,1018.33
2017-04-29T12:14:28.028Z,1018.34
2017-04-29T12:15:37.249Z,1018.34
2017-04-29T12:16:46.292Z,1018.29
2017-04-29T12:17:55.838Z,1018.36
2017-04-29T12:19:05.385Z,1018.42
2017-04-29T12:20:14.936Z,1018.37
2017-04-29T12:21:23.831Z,1018.35
2017-04-29T12:22:33.099Z,1018.36
2017-04-29T12:23:41.999Z,1018.37
2017-04-29T12:24:52.199Z,1018.3
2017-04-29T12:26:01.424Z,1018.31
2017-04-29T12:27:10.643Z,1018.34
2017-04-29T12:28:19.911Z,1018.31
2017-04-29T12:29:29.781Z,1018.29
2017-04-29T12:30:38.676Z,1018.28
2017-04-29T12:31:47.911Z,1018.26
2017-04-29T12:32:57.456Z,1018.26
2017-04-29T12:34:07.154Z,1018.23
2017-04-29T12:35:16.056Z,1018.23
2017-04-29T12:36:24.948Z,1018.22
2017-04-29T12:37:34.493Z,1018.23
2017-04-29T12:38:43.719Z,1018.33
2017-04-29T12:39:53.775Z,1018.15
2017-04-29T12:41:03.678Z,1018.18
2017-04-29T12:42:12.578Z,1018.19
2017-04-29T12:43:21.480Z,1018.13
2017-04-29T12:44:31.031Z,1018.19
2017-04-29T12:45:40.401Z,1018.22
2017-04-29T12:46:49.617Z,1018.24
2017-04-29T12:47:58.831Z,1018.21
2017-04-29T12:49:07.721Z,1018.28
2017-04-29T12:50:17.590Z,1018.22
2017-04-29T12:51:26.964Z,1018.21
2017-04-29T12:52:35.868Z,1018.23
2017-04-29T12:53:45.749Z,1018.28
2017-04-29T12:54:55.303Z,1018.25
2017-04-29T12:56:04.885Z,1018.25
2017-04-29T12:57:13.780Z,1018.24
2017-04-29T12:58:22.999Z,1018.24
2017-04-29T12:59:32.872Z,1018.21
2017-04-29T13:00:41.765Z,1018.26
2017-04-29T13:01:50.659Z,1018.23
2017-04-29T13:02:59.927Z,1018.25
2017-04-29T13:04:09.150Z,1018.26
2017-04-29T13:05:19.385Z,1018.28
2017-04-29T13:06:28.282Z,1018.33
2017-04-29T13:07:37.529Z,1018.33
2017-04-29T13:08:46.723Z,1018.28
2017-04-29T13:09:56.603Z,1018.32
2017-04-29T13:11:05.821Z,1018.32
2017-04-29T13:12:14.717Z,1018.31
2017-04-29T13:13:23.613Z,1018.34
2017-04-29T13:14:33.309Z,1018.31
2017-04-29T13:15:42.204Z,1018.3
2017-04-29T13:16:51.127Z,1018.32
2017-04-29T13:18:00.349Z,1018.34
2017-04-29T13:19:09.923Z,1018.37
2017-04-29T13:20:19.948Z,1018.39
2017-04-29T13:21:29.168Z,1018.41
2017-04-29T13:22:38.060Z,1018.37
2017-04-29T13:23:47.279Z,1018.44
2017-04-29T13:24:56.822Z,1018.41
2017-04-29T13:26:06.194Z,1018.44
2017-04-29T13:27:15.097Z,1018.5
2017-04-29T13:28:24.317Z,1018.56
2017-04-29T13:29:33.543Z,1018.53
2017-04-29T13:30:42.438Z,1018.54
2017-04-29T13:31:51.808Z,1018.54
2017-04-29T13:33:00.723Z,1018.59
2017-04-29T13:34:09.951Z,1018.58
2017-04-29T13:35:19.833Z,1018.64
2017-04-29T13:36:29.065Z,1018.57
2017-04-29T13:37:37.965Z,1018.58
2017-04-29T13:38:47.842Z,1018.62
2017-04-29T13:39:57.397Z,1018.58
2017-04-29T13:41:06.303Z,1018.64
2017-04-29T13:42:15.207Z,1018.72
2017-04-29T13:43:24.363Z,1018.67
2017-04-29T13:44:33.600Z,1018.51
2017-04-29T13:45:42.836Z,1018.54
2017-04-29T13:46:51.745Z,1018.49
2017-04-29T13:48:00.978Z,1018.47
2017-04-29T13:49:09.940Z,1018.46
2017-04-29T13:50:19.175Z,1018.44
2017-04-29T13:51:28.083Z,1018.46
2017-04-29T13:52:37.318Z,1018.46
2017-04-29T13:53:46.548Z,1018.38
2017-04-29T13:54:56.684Z,1018.39
2017-04-29T13:56:05.916Z,1018.41
2017-04-29T13:57:14.816Z,1018.36
2017-04-29T13:58:23.723Z,1018.45
2017-04-29T13:59:33.278Z,1018.41
2017-04-29T14:00:42.549Z,1018.39
2017-04-29T14:01:52.098Z,1018.35
2017-04-29T14:03:01.326Z,1018.55
2017-04-29T14:04:10.237Z,1018.56
2017-04-29T14:05:19.138Z,1018.69